• Join FlightAware (Why Join?)
  • Login
  • US Flag 
12:16AM EDT


 

Airport Tracker/Info


-or-


 

Live Flight TrackerFlight Track Log ✈ CJT574 ✈ 09-Jul-2013 ✈ CYWG - CYHM

Flight Track Log - Related Links

Times and Time Zones

All times are in EDT time to prevent confusion due to time zone crossing. See the CJT574 flight status page for this flight to view local times or setup timezone preferences in your user account.

Time Position Orientation Groundspeed Altitude Reporting Facility
EDT Latitude Longitude Course Direction KTS MPH feet Rate Location/Type
01:51AM 49.8833 -97.2333 360° North 10 12 800  Level Winnipeg Center
01:53AM 49.8833 -97.2333 327° Northwest 20 23 800  Level Winnipeg Center
01:54AM 49.8833 -97.2333 327° Northwest 10 12 800  Level Winnipeg Center
01:56AM 49.9000 -97.2333 360° North 130 150 800 540 Level Winnipeg Center
01:57AM 49.9333 -97.2333 360° North 150 173 2,600 1,560 Climbing Winnipeg Center
01:58AM 49.9833 -97.2333 360° North 180 207 3,900 1,140 Climbing Winnipeg Center
01:59AM 50.0333 -97.1667 41° Northeast 230 265 4,900 1,500 Climbing Winnipeg Center
02:00AM 50.0000 -97.0667 117° Southeast 280 322 7,000 2,340 Climbing Winnipeg Center
02:01AM 49.9500 -97.0000 139° Southeast 270 311 9,600 2,100 Climbing Winnipeg Center
02:02AM 49.8833 -96.9333 147° Southeast 270 311 11,200 1,860 Climbing Winnipeg Center
02:03AM 49.8167 -96.9333 180° South 270 311 13,400 1,920 Climbing Winnipeg Center
02:04AM 49.7333 -96.9333 180° South 260 299 15,100 1,740 Climbing Winnipeg Center
02:05AM 49.6833 -96.8667 139° Southeast 340 391 16,900 1,500 Climbing Winnipeg Center
02:06AM 49.6500 -96.7000 107° East 360 414 18,100 1,200 Climbing Winnipeg Center
02:07AM 49.6000 -96.5500 117° Southeast 380 437 19,400 1,200 Climbing Winnipeg Center
02:08AM 49.5667 -96.4000 109° East 380 437 20,600 1,020 Climbing Winnipeg Center
02:09AM 49.5167 -96.2500 117° Southeast 400 460 21,500 600 Climbing Winnipeg Center
02:10AM 49.4500 -96.0667 119° Southeast 420 483 21,900 420 Climbing Winnipeg Center
02:11AM 49.4000 -95.9167 117° Southeast 450 518 22,400 360 Climbing Winnipeg Center
02:12AM 49.3000 -95.7667 136° Southeast 460 529 22,700 300 Climbing Winnipeg Center
02:13AM 49.2167 -95.6167 130° Southeast 480 552 23,100 360 Climbing Winnipeg Center
02:14AM 49.1500 -95.4333 119° Southeast 490 564 23,500 1,140 Climbing Winnipeg Center
02:15AM 49.1000 -95.2333 111° Southeast 510 587 25,400 1,920 Climbing Winnipeg Center
02:16AM 49.0500 -95.0500 113° Southeast 490 564 27,400 1,500 Climbing Winnipeg Center
02:17AM 48.9833 -94.8500 117° Southeast 480 552 28,400 900 Climbing Winnipeg Center
02:18AM 48.9333 -94.6833 114° Southeast 490 564 29,300 840 Climbing Winnipeg Center
02:19AM 48.8833 -94.4667 109° East 490 564 30,100 780 Climbing Winnipeg Center
02:21AM 48.8364 -94.3008 113° Southeast 499 574 30,900 780 Climbing Minneapolis Center
02:22AM 48.7789 -94.1064 114° Southeast 504 580 31,700 780 Climbing Minneapolis Center
02:23AM 48.7203 -93.9111 114° Southeast 507 583 32,500 840 Climbing Minneapolis Center
02:24AM 48.6617 -93.7172 115° Southeast 508 585 33,400 780 Climbing Minneapolis Center
02:25AM 48.6028 -93.5244 115° Southeast 506 582 34,100 600 Climbing Minneapolis Center
02:26AM 48.5439 -93.3311 115° Southeast 506 582 34,700 420 Climbing Minneapolis Center
02:27AM 48.4842 -93.1386 115° Southeast 507 583 35,000 120 Climbing Minneapolis Center
02:28AM 48.4228 -92.9433 115° Southeast 510 587 35,000 -60 Level Minneapolis Center
02:29AM 48.3614 -92.7481 115° Southeast 513 590 34,900 -60 Descending Minneapolis Center
02:30AM 48.3008 -92.5528 115° Southeast 514 592 34,900  Level Minneapolis Center
02:31AM 48.2386 -92.3586 116° Southeast 515 593 35,000  Climbing Minneapolis Center
02:32AM 48.1758 -92.1633 116° Southeast 518 596 34,900 -60 Descending Minneapolis Center
02:33AM 48.1125 -91.9678 116° Southeast 520 598 34,900  Level Minneapolis Center
02:34AM 48.0492 -91.7719 116° Southeast 523 602 34,900  Level Minneapolis Center
02:35AM 47.9853 -91.5767 116° Southeast 523 602 35,000  Climbing Minneapolis Center
02:36AM 47.9217 -91.3806 116° Southeast 524 603 34,900  Descending Minneapolis Center
02:37AM 47.8578 -91.1864 116° Southeast 524 603 35,000  Climbing Minneapolis Center
02:38AM 47.7922 -90.9914 117° Southeast 525 604 34,900 -60 Descending Minneapolis Center
02:39AM 47.7272 -90.7975 116° Southeast 524 603 34,900  Level Minneapolis Center
02:40AM 47.6603 -90.6022 117° Southeast 529 609 34,900  Level Minneapolis Center
02:41AM 47.5928 -90.4053 117° Southeast 534 615 34,900  Level Minneapolis Center
02:42AM 47.5156 -90.1889 118° Southeast 536 617 35,000  Climbing Minneapolis Center
02:43AM 47.4561 -90.0119 116° Southeast 539 620 35,000  Level Minneapolis Center
02:44AM 47.3764 -89.7953 118° Southeast 540 621 35,000  Level Minneapolis Center
02:45AM 47.3058 -89.5972 118° Southeast 542 624 35,000  Level Minneapolis Center
02:46AM 47.2356 -89.4000 118° Southeast 542 624 35,000  Level Minneapolis Center
02:47AM 47.1633 -89.2025 118° Southeast 545 627 35,000  Level Minneapolis Center
02:48AM 47.0928 -89.0047 118° Southeast 545 627 35,000  Level Minneapolis Center
02:49AM 47.0211 -88.8094 118° Southeast 543 625 35,000  Level Minneapolis Center
02:50AM 46.9489 -88.6147 118° Southeast 542 624 35,000  Level Minneapolis Center
02:51AM 46.8778 -88.4208 118° Southeast 541 623 35,000  Level Minneapolis Center
02:52AM 46.8047 -88.2264 119° Southeast 543 625 35,000  Level Minneapolis Center
02:53AM 46.7308 -88.0339 119° Southeast 542 624 35,000  Level Minneapolis Center
02:54AM 46.6586 -87.8411 119° Southeast 542 624 35,000 -60 Level Minneapolis Center
02:55AM 46.5964 -87.6831 120° Southeast 542 624 34,900  Descending Minneapolis Center
02:56AM 46.5236 -87.4919 119° Southeast 541 623 35,000  Climbing Minneapolis Center
02:57AM 46.4497 -87.3000 119° Southeast 545 627 34,900 -60 Descending Minneapolis Center
02:58AM 46.3747 -87.1097 120° Southeast 544 626 34,900  Level Minneapolis Center
02:59AM 46.2992 -86.9181 120° Southeast 549 632 34,900  Level Minneapolis Center
03:00AM 46.2242 -86.7267 119° Southeast 548 631 34,900  Level Minneapolis Center
03:01AM 46.1469 -86.5369 120° Southeast 548 631 35,000  Climbing Minneapolis Center
03:02AM 46.0550 -86.3081 120° Southeast 549 632 35,000  Level Minneapolis Center
03:03AM 45.9794 -86.1186 120° Southeast 546 628 35,000 -60 Level Minneapolis Center
03:04AM 45.9028 -85.9308 120° Southeast 545 627 34,900 -60 Descending Minneapolis Center
03:05AM 45.8253 -85.7439 121° Southeast 545 627 34,900  Level Minneapolis Center
03:06AM 45.7489 -85.5589 121° Southeast 541 623 35,000  Climbing Minneapolis Center
03:07AM 45.6711 -85.3736 121° Southeast 542 624 34,900 -60 Descending Minneapolis Center
03:08AM 45.5947 -85.1889 121° Southeast 539 620 34,900  Level Minneapolis Center
03:09AM 45.5167 -85.0036 121° Southeast 543 625 34,900  Level Minneapolis Center
03:10AM 45.4389 -84.8197 121° Southeast 541 623 34,900  Level Minneapolis Center
03:11AM 45.3594 -84.6364 122° Southeast 542 624 34,900  Level Minneapolis Center
03:12AM 45.2803 -84.4511 121° Southeast 546 628 34,900  Level Minneapolis Center
03:13AM 45.2019 -84.2681 121° Southeast 544 626 35,000  Climbing Minneapolis Center
03:15AM 45.0917 -84.0084 121° Southeast  Level FlightAware Approximate
03:16AM 44.9633 -83.7214 121° Southeast 545 627 35,000  Level Minneapolis Center
03:18AM 44.8000 -83.4000 126° Southeast 550 633 35,000  Level Toronto Center
03:19AM 44.7333 -83.2000 115° Southeast 540 621 35,000  Level Toronto Center
03:20AM 44.6500 -83.0333 125° Southeast 540 621 35,000  Level Toronto Center
03:21AM 44.5667 -82.8333 120° Southeast 550 633 35,000  Level Toronto Center
03:22AM 44.6362 -82.9601 121° Southeast  Level FlightAware Approximate
03:22AM 44.4667 -82.6667 130° Southeast 530 610 35,000  Level Toronto Center
03:23AM 44.4000 -82.5000 119° Southeast 520 598 35,000  Level Toronto Center
03:24AM 44.3167 -82.3333 125° Southeast 510 587 35,000  Level Toronto Center
03:25AM 44.2500 -82.2000 125° Southeast 500 575 35,000 -720 Level Toronto Center
03:26AM 44.1667 -82.0333 125° Southeast 490 564 33,600 -2,100 Descending Toronto Center
03:27AM 44.1000 -81.8833 122° Southeast 480 552 30,900 -2,700 Descending Toronto Center
03:28AM 44.0167 -81.7167 125° Southeast 470 541 28,300 -2,400 Descending Toronto Center
03:29AM 43.9500 -81.5833 125° Southeast 460 529 26,100 -2,160 Descending Toronto Center
03:30AM 43.8833 -81.4333 122° Southeast 440 506 24,000 -2,220 Descending Toronto Center
03:31AM 43.8000 -81.3000 131° Southeast 420 483 21,700 -2,220 Descending Toronto Center
03:32AM 43.7500 -81.1833 121° Southeast 400 460 19,600 -2,100 Descending Toronto Center
03:33AM 43.6833 -81.0667 128° Southeast 390 449 17,500 -2,340 Descending Toronto Center
03:34AM 43.6167 -80.9500 128° Southeast 380 437 15,000 -2,760 Descending Toronto Center
03:35AM 43.5667 -80.8000 115° Southeast 380 437 12,000 -2,100 Descending Toronto Center
03:36AM 43.5167 -80.7167 130° Southeast 360 414 10,900 -1,080 Descending Toronto Center
03:37AM 43.4667 -80.6000 121° Southeast 320 368 9,900 -1,500 Descending Toronto Center
03:38AM 43.4167 -80.5000 125° Southeast 290 334 8,000 -1,860 Descending Toronto Center
03:39AM 43.3667 -80.4333 136° Southeast 290 334 6,200 -1,740 Descending Toronto Center
03:40AM 43.3167 -80.3500 129° Southeast 280 322 4,600 -1,380 Descending Toronto Center
03:41AM 43.2833 -80.2667 119° Southeast 260 299 3,500 -960 Descending Toronto Center
03:42AM 43.2333 -80.2000 136° Southeast 240 276 2,700 -360 Descending Toronto Center
03:43AM 43.2167 -80.1333 109° East 220 253 2,800  Climbing Toronto Center
03:44AM 43.2000 -80.0500 105° East 200 230 2,700 -600 Descending Toronto Center
03:45AM 43.1833 -80.0000 115° Southeast 150 173 1,700 -840 Descending Toronto Center
03:46AM 43.1667 -79.9500 115° Southeast 140 161 1,100 -480 Descending Toronto Center
03:47AM 43.1667 -79.9000 90° East 100 115 800 -300 Descending Toronto Center